Huvudsida
METAR-TAF:

METAR-TAF

Flygplatser :

El Dorado, Kansas, USA

latitud: 37-46-27N, longitud: 096-49-03W, höjd: 420 m

Aktuellt väderrapport

Denna rapport gjordes för 27 minuter sedan, klockan 10:55 UTC
Vind 14 kt från ost/nordost i byarna ända upp till 19 kt
Temperatur 11°C
Fuktighet 82%
Tryck 1016 hPa
Sikt: 16.1 km
Klar himmel

METAR: KEQA 201055Z AUTO 07014G19KT 10SM CLR 11/08 A3000 RMK AO2

Tid: 06:22 (11:22 UTC)


TAF: saknas

Aktuella väderrapporter och prognoser från 4000 flygplatser (METAR- och TAF-rapporter).

De tillgängliga stationerna syns som gula och röda prickar på kartan.

För musen över prickarna för att se namnen på stationerna.

Klicka sedan för att få väderrapporter och prognoser.

För att ändra kartan: Klicka på de gröna knapparna med ett svart kors på för att zooma in; den gröna knappen med ett streck på för att zooma ut; eller på de gröna pilarna för angränsande kartor.


METAR-TAF: